sensor_id;sensor_type;location;lat;lon;timestamp;pressure;altitude;pressure_sealevel;temperature;humidity
48792;BME280;34587;48.816;9.420;2023-12-20T00:02:02;98845.38;;;5.68;100.00
48792;BME280;34587;48.816;9.420;2023-12-20T00:04:28;98841.97;;;5.87;100.00
48792;BME280;34587;48.816;9.420;2023-12-20T00:06:53;98839.47;;;5.95;100.00
48792;BME280;34587;48.816;9.420;2023-12-20T00:09:18;98830.84;;;5.90;100.00
48792;BME280;34587;48.816;9.420;2023-12-20T00:11:43;98840.22;;;5.68;100.00
48792;BME280;34587;48.816;9.420;2023-12-20T00:14:09;98837.69;;;5.76;100.00
48792;BME280;34587;48.816;9.420;2023-12-20T00:16:34;98823.09;;;5.61;100.00
48792;BME280;34587;48.816;9.420;2023-12-20T00:18:59;98812.84;;;5.82;100.00
48792;BME280;34587;48.816;9.420;2023-12-20T00:21:24;98806.81;;;5.79;100.00
48792;BME280;34587;48.816;9.420;2023-12-20T00:23:50;98810.22;;;5.65;100.00
48792;BME280;34587;48.816;9.420;2023-12-20T00:26:15;98821.31;;;5.45;100.00
48792;BME280;34587;48.816;9.420;2023-12-20T00:28:40;98819.53;;;5.25;100.00
48792;BME280;34587;48.816;9.420;2023-12-20T00:31:06;98815.22;;;5.18;100.00
48792;BME280;34587;48.816;9.420;2023-12-20T00:33:31;98809.19;;;5.10;100.00
48792;BME280;34587;48.816;9.420;2023-12-20T00:35:57;98808.34;;;5.11;100.00
48792;BME280;34587;48.816;9.420;2023-12-20T00:38:22;98801.47;;;5.05;100.00
48792;BME280;34587;48.816;9.420;2023-12-20T00:40:48;98797.19;;;5.12;100.00
48792;BME280;34587;48.816;9.420;2023-12-20T00:43:14;98802.31;;;5.06;100.00
48792;BME280;34587;48.816;9.420;2023-12-20T00:45:40;98793.75;;;5.04;100.00
48792;BME280;34587;48.816;9.420;2023-12-20T00:48:05;98795.50;;;5.15;100.00
48792;BME280;34587;48.816;9.420;2023-12-20T00:50:31;98793.78;;;5.11;100.00
48792;BME280;34587;48.816;9.420;2023-12-20T00:52:56;98796.41;;;5.24;100.00
48792;BME280;34587;48.816;9.420;2023-12-20T00:55:21;98793.81;;;5.19;100.00
48792;BME280;34587;48.816;9.420;2023-12-20T00:57:46;98795.63;;;5.48;100.00
48792;BME280;34587;48.816;9.420;2023-12-20T05:16:01;98913.00;;;4.28;100.00
48792;BME280;34587;48.816;9.420;2023-12-20T05:18:26;98919.03;;;4.30;100.00
48792;BME280;34587;48.816;9.420;2023-12-20T05:20:52;98909.56;;;4.29;100.00
48792;BME280;34587;48.816;9.420;2023-12-20T05:23:17;98921.59;;;4.30;100.00
48792;BME280;34587;48.816;9.420;2023-12-20T05:25:43;98928.38;;;4.28;100.00
48792;BME280;34587;48.816;9.420;2023-12-20T05:28:08;98933.47;;;4.25;100.00
48792;BME280;34587;48.816;9.420;2023-12-20T05:30:33;98930.91;;;4.24;100.00
48792;BME280;34587;48.816;9.420;2023-12-20T05:32:59;98931.75;;;4.24;100.00
48792;BME280;34587;48.816;9.420;2023-12-20T05:35:24;98930.09;;;4.26;100.00
48792;BME280;34587;48.816;9.420;2023-12-20T05:37:49;98924.09;;;4.26;100.00
48792;BME280;34587;48.816;9.420;2023-12-20T05:40:15;98933.50;;;4.28;100.00
48792;BME280;34587;48.816;9.420;2023-12-20T05:42:40;98935.22;;;4.29;100.00
48792;BME280;34587;48.816;9.420;2023-12-20T05:45:06;98942.09;;;4.30;100.00
48792;BME280;34587;48.816;9.420;2023-12-20T05:47:31;98945.53;;;4.32;100.00
48792;BME280;34587;48.816;9.420;2023-12-20T05:49:57;98948.94;;;4.31;100.00
48792;BME280;34587;48.816;9.420;2023-12-20T05:52:22;98952.41;;;4.36;100.00
48792;BME280;34587;48.816;9.420;2023-12-20T05:54:47;98957.50;;;4.35;100.00
48792;BME280;34587;48.816;9.420;2023-12-20T05:57:12;98960.97;;;4.35;100.00
48792;BME280;34587;48.816;9.420;2023-12-20T05:59:38;98959.25;;;4.37;100.00
48792;BME280;34587;48.816;9.420;2023-12-20T06:02:04;98962.63;;;4.32;100.00
48792;BME280;34587;48.816;9.420;2023-12-20T06:04:29;98969.47;;;4.34;100.00
48792;BME280;34587;48.816;9.420;2023-12-20T06:06:55;98971.31;;;4.48;100.00
48792;BME280;34587;48.816;9.420;2023-12-20T06:09:20;98975.69;;;4.56;100.00
48792;BME280;34587;48.816;9.420;2023-12-20T06:11:45;98985.09;;;4.59;100.00
48792;BME280;34587;48.816;9.420;2023-12-20T06:14:11;98988.59;;;4.67;100.00
48792;BME280;34587;48.816;9.420;2023-12-20T06:16:36;98988.59;;;4.67;100.00
48792;BME280;34587;48.816;9.420;2023-12-20T06:19:01;98987.69;;;4.62;100.00
48792;BME280;34587;48.816;9.420;2023-12-20T06:21:26;98986.75;;;4.54;100.00
48792;BME280;34587;48.816;9.420;2023-12-20T06:23:52;98990.31;;;4.65;100.00
48792;BME280;34587;48.816;9.420;2023-12-20T06:26:17;98990.28;;;4.62;100.00
48792;BME280;34587;48.816;9.420;2023-12-20T06:28:42;98978.19;;;4.52;100.00
48792;BME280;34587;48.816;9.420;2023-12-20T06:31:08;98979.91;;;4.50;100.00
48792;BME280;34587;48.816;9.420;2023-12-20T06:33:33;98986.66;;;4.45;100.00
48792;BME280;34587;48.816;9.420;2023-12-20T06:35:59;98981.47;;;4.37;100.00
48792;BME280;34587;48.816;9.420;2023-12-20T06:38:25;98986.81;;;4.57;100.00
48792;BME280;34587;48.816;9.420;2023-12-20T06:40:50;98992.78;;;4.56;100.00
48792;BME280;34587;48.816;9.420;2023-12-20T06:43:15;98991.13;;;4.62;100.00
48792;BME280;34587;48.816;9.420;2023-12-20T06:45:41;98995.34;;;4.56;100.00
48792;BME280;34587;48.816;9.420;2023-12-20T06:48:06;98994.44;;;4.52;100.00
48792;BME280;34587;48.816;9.420;2023-12-20T06:50:31;98994.44;;;4.51;100.00
48792;BME280;34587;48.816;9.420;2023-12-20T06:52:57;98993.59;;;4.52;100.00
48792;BME280;34587;48.816;9.420;2023-12-20T06:55:22;98995.44;;;4.68;100.00
48792;BME280;34587;48.816;9.420;2023-12-20T06:57:48;99003.19;;;4.73;100.00
48792;BME280;34587;48.816;9.420;2023-12-20T07:00:13;99010.94;;;4.74;100.00
48792;BME280;34587;48.816;9.420;2023-12-20T07:02:39;99009.91;;;4.58;100.00
48792;BME280;34587;48.816;9.420;2023-12-20T07:05:04;99015.03;;;4.58;100.00
48792;BME280;34587;48.816;9.420;2023-12-20T07:07:30;99020.16;;;4.57;100.00
48792;BME280;34587;48.816;9.420;2023-12-20T07:09:55;99017.72;;;4.69;100.00
48792;BME280;34587;48.816;9.420;2023-12-20T07:12:20;99029.63;;;4.61;100.00
48792;BME280;34587;48.816;9.420;2023-12-20T07:14:46;99027.84;;;4.57;100.00
48792;BME280;34587;48.816;9.420;2023-12-20T07:17:12;99031.28;;;4.56;100.00
48792;BME280;34587;48.816;9.420;2023-12-20T07:19:39;99033.03;;;4.63;100.00
48792;BME280;34587;48.816;9.420;2023-12-20T07:22:05;99029.56;;;4.58;100.00
48792;BME280;34587;48.816;9.420;2023-12-20T07:24:31;99033.16;;;4.75;100.00
48792;BME280;34587;48.816;9.420;2023-12-20T07:26:56;99036.56;;;4.73;100.00
48792;BME280;34587;48.816;9.420;2023-12-20T07:29:22;99039.06;;;4.68;100.00
48792;BME280;34587;48.816;9.420;2023-12-20T07:31:47;99039.97;;;4.70;100.00
48792;BME280;34587;48.816;9.420;2023-12-20T07:34:12;99046.88;;;4.77;100.00
48792;BME280;34587;48.816;9.420;2023-12-20T07:36:37;99048.63;;;4.81;100.00
48792;BME280;34587;48.816;9.420;2023-12-20T07:39:03;99052.03;;;4.80;100.00
48792;BME280;34587;48.816;9.420;2023-12-20T07:41:28;99051.19;;;4.80;100.00
48792;BME280;34587;48.816;9.420;2023-12-20T07:43:53;99057.19;;;4.80;100.00
48792;BME280;34587;48.816;9.420;2023-12-20T07:46:20;99057.19;;;4.80;100.00
48792;BME280;34587;48.816;9.420;2023-12-20T07:48:47;99063.22;;;4.85;100.00
48792;BME280;34587;48.816;9.420;2023-12-20T07:51:13;99070.00;;;4.82;100.00
48792;BME280;34587;48.816;9.420;2023-12-20T07:53:38;99070.88;;;4.82;100.00
48792;BME280;34587;48.816;9.420;2023-12-20T07:56:13;99066.69;;;4.89;100.00
48792;BME280;34587;48.816;9.420;2023-12-20T07:58:39;99071.81;;;4.92;100.00
48792;BME280;34587;48.816;9.420;2023-12-20T08:01:04;99078.66;;;4.90;100.00
48792;BME280;34587;48.816;9.420;2023-12-20T08:03:29;99071.88;;;4.97;100.00
48792;BME280;34587;48.816;9.420;2023-12-20T08:05:55;99079.50;;;4.90;100.00
48792;BME280;34587;48.816;9.420;2023-12-20T08:08:21;99072.75;;;4.99;100.00
48792;BME280;34587;48.816;9.420;2023-12-20T08:10:46;99076.16;;;4.98;100.00
48792;BME280;34587;48.816;9.420;2023-12-20T08:13:12;99072.75;;;4.99;100.00
48792;BME280;34587;48.816;9.420;2023-12-20T08:15:37;99078.66;;;4.93;100.00
48792;BME280;34587;48.816;9.420;2023-12-20T08:18:02;99086.50;;;5.04;100.00
48792;BME280;34587;48.816;9.420;2023-12-20T08:20:28;99083.03;;;4.99;100.00
48792;BME280;34587;48.816;9.420;2023-12-20T08:22:53;99083.03;;;4.99;100.00
48792;BME280;34587;48.816;9.420;2023-12-20T08:25:18;99092.44;;;5.00;100.00
48792;BME280;34587;48.816;9.420;2023-12-20T08:27:44;99089.88;;;5.03;100.00
48792;BME280;34587;48.816;9.420;2023-12-20T08:30:09;99095.03;;;5.03;100.00
48792;BME280;34587;48.816;9.420;2023-12-20T08:32:35;99095.78;;;4.93;100.00
48792;BME280;34587;48.816;9.420;2023-12-20T08:35:00;99100.16;;;5.03;100.00
48792;BME280;34587;48.816;9.420;2023-12-20T08:37:26;99100.09;;;4.97;100.00
48792;BME280;34587;48.816;9.420;2023-12-20T08:39:51;99101.81;;;4.98;100.00
48792;BME280;34587;48.816;9.420;2023-12-20T08:42:16;99110.44;;;5.03;100.00
48792;BME280;34587;48.816;9.420;2023-12-20T08:44:41;99105.28;;;5.03;100.00
48792;BME280;34587;48.816;9.420;2023-12-20T08:47:07;99109.63;;;5.05;100.00
48792;BME280;34587;48.816;9.420;2023-12-20T08:49:32;99116.47;;;5.06;100.00
48792;BME280;34587;48.816;9.420;2023-12-20T08:51:57;99113.75;;;4.89;100.00
48792;BME280;34587;48.816;9.420;2023-12-20T08:54:23;99119.69;;;4.85;100.00
48792;BME280;34587;48.816;9.420;2023-12-20T08:56:48;99115.41;;;4.86;100.00
48792;BME280;34587;48.816;9.420;2023-12-20T08:59:13;99121.44;;;4.89;100.00
48792;BME280;34587;48.816;9.420;2023-12-20T09:01:39;99107.94;;;5.12;100.00
48792;BME280;34587;48.816;9.420;2023-12-20T09:04:04;99105.38;;;5.10;100.00
48792;BME280;34587;48.816;9.420;2023-12-20T09:06:31;99100.38;;;6.67;100.00
48792;BME280;34587;48.816;9.420;2023-12-20T09:08:56;99088.16;;;9.73;100.00
48792;BME280;34587;48.816;9.420;2023-12-20T09:11:21;99074.75;;;11.41;100.00
48792;BME280;34587;48.816;9.420;2023-12-20T09:13:47;99075.19;;;10.54;100.00
48792;BME280;34587;48.816;9.420;2023-12-20T09:16:12;99069.50;;;12.40;100.00
48792;BME280;34587;48.816;9.420;2023-12-20T09:18:38;99069.44;;;13.20;93.14
48792;BME280;34587;48.816;9.420;2023-12-20T09:21:04;99078.47;;;13.77;81.96
48792;BME280;34587;48.816;9.420;2023-12-20T09:23:29;99081.22;;;13.71;76.76
48792;BME280;34587;48.816;9.420;2023-12-20T09:25:54;99085.19;;;12.35;88.99
48792;BME280;34587;48.816;9.420;2023-12-20T09:28:20;99080.78;;;12.37;89.43
48792;BME280;34587;48.816;9.420;2023-12-20T09:30:45;99088.91;;;11.74;89.19
48792;BME280;34587;48.816;9.420;2023-12-20T09:33:11;99093.16;;;11.78;88.54
48792;BME280;34587;48.816;9.420;2023-12-20T09:35:36;99086.47;;;11.65;93.82
48792;BME280;34587;48.816;9.420;2023-12-20T09:38:02;99085.41;;;12.24;89.50
48792;BME280;34587;48.816;9.420;2023-12-20T09:40:27;99078.88;;;13.26;78.17
48792;BME280;34587;48.816;9.420;2023-12-20T09:42:58;99080.06;;;14.76;65.78
48792;BME280;34587;48.816;9.420;2023-12-20T09:45:24;99089.25;;;12.89;72.34
48792;BME280;34587;48.816;9.420;2023-12-20T09:47:52;99085.72;;;13.98;70.01
48792;BME280;34587;48.816;9.420;2023-12-20T09:50:19;99089.06;;;14.03;70.00
48792;BME280;34587;48.816;9.420;2023-12-20T09:52:47;99088.72;;;13.83;67.11
48792;BME280;34587;48.816;9.420;2023-12-20T09:55:15;99095.44;;;13.92;69.70
48792;BME280;34587;48.816;9.420;2023-12-20T09:57:42;99096.06;;;14.32;66.40
48792;BME280;34587;48.816;9.420;2023-12-20T10:00:07;99098.09;;;14.23;58.90
48792;BME280;34587;48.816;9.420;2023-12-20T10:02:34;99097.16;;;14.86;59.40
48792;BME280;34587;48.816;9.420;2023-12-20T10:05:02;99101.31;;;12.07;73.29
48792;BME280;34587;48.816;9.420;2023-12-20T10:07:28;99098.75;;;12.91;66.99
48792;BME280;34587;48.816;9.420;2023-12-20T10:09:54;99086.47;;;12.96;64.48
48792;BME280;34587;48.816;9.420;2023-12-20T10:12:21;99084.75;;;14.02;61.74
48792;BME280;34587;48.816;9.420;2023-12-20T10:14:46;99081.59;;;12.81;63.30
48792;BME280;34587;48.816;9.420;2023-12-20T10:17:11;99079.84;;;14.23;59.64
48792;BME280;34587;48.816;9.420;2023-12-20T10:19:36;99075.94;;;13.74;59.55
48792;BME280;34587;48.816;9.420;2023-12-20T10:22:04;99081.06;;;14.09;59.02
48792;BME280;34587;48.816;9.420;2023-12-20T10:24:29;99072.34;;;13.78;56.93
48792;BME280;34587;48.816;9.420;2023-12-20T10:27:07;99079.28;;;13.79;57.32
48792;BME280;34587;48.816;9.420;2023-12-20T10:29:36;99081.75;;;11.88;60.22
48792;BME280;34587;48.816;9.420;2023-12-20T10:34:45;99055.53;;;14.21;56.37
48792;BME280;34587;48.816;9.420;2023-12-20T10:37:10;99057.84;;;13.68;57.63
48792;BME280;34587;48.816;9.420;2023-12-20T10:39:36;99073.25;;;11.80;63.86
48792;BME280;34587;48.816;9.420;2023-12-20T10:42:02;99077.56;;;12.68;60.87
48792;BME280;34587;48.816;9.420;2023-12-20T10:44:27;99074.47;;;14.88;52.96
48792;BME280;34587;48.816;9.420;2023-12-20T10:46:53;99075.63;;;13.15;56.99
48792;BME280;34587;48.816;9.420;2023-12-20T10:49:22;99073.91;;;12.36;57.50
48792;BME280;34587;48.816;9.420;2023-12-20T10:51:48;99081.56;;;11.48;64.30
48792;BME280;34587;48.816;9.420;2023-12-20T10:54:14;99091.28;;;9.07;74.31
48792;BME280;34587;48.816;9.420;2023-12-20T10:56:39;99089.13;;;8.23;79.75
48792;BME280;34587;48.816;9.420;2023-12-20T10:59:06;99096.13;;;7.66;93.59
48792;BME280;34587;48.816;9.420;2023-12-20T11:01:34;99103.03;;;7.30;100.00
48792;BME280;34587;48.816;9.420;2023-12-20T11:04:01;99090.97;;;7.20;100.00
48792;BME280;34587;48.816;9.420;2023-12-20T11:06:46;99075.53;;;7.29;100.00
48792;BME280;34587;48.816;9.420;2023-12-20T11:09:41;99086.66;;;7.68;100.00
48792;BME280;34587;48.816;9.420;2023-12-20T11:12:24;99064.97;;;8.36;99.31
48792;BME280;34587;48.816;9.420;2023-12-20T11:14:54;99057.19;;;8.48;95.39
48792;BME280;34587;48.816;9.420;2023-12-20T11:17:28;99046.75;;;10.50;79.94
48792;BME280;34587;48.816;9.420;2023-12-20T11:22:22;99043.19;;;12.55;58.52
48792;BME280;34587;48.816;9.420;2023-12-20T11:24:48;99047.66;;;12.48;57.24
48792;BME280;34587;48.816;9.420;2023-12-20T11:27:14;99048.66;;;11.50;61.74
48792;BME280;34587;48.816;9.420;2023-12-20T11:29:40;99050.47;;;11.46;61.68
48792;BME280;34587;48.816;9.420;2023-12-20T11:35:00;99049.00;;;10.73;62.87
48792;BME280;34587;48.816;9.420;2023-12-20T11:37:35;99051.19;;;11.00;64.93
48792;BME280;34587;48.816;9.420;2023-12-20T11:40:02;99051.03;;;9.77;73.99
48792;BME280;34587;48.816;9.420;2023-12-20T11:42:27;99058.03;;;8.54;83.50
48792;BME280;34587;48.816;9.420;2023-12-20T11:44:53;99069.50;;;7.61;93.28
48792;BME280;34587;48.816;9.420;2023-12-20T11:47:18;99078.97;;;7.22;100.00
48792;BME280;34587;48.816;9.420;2023-12-20T11:49:47;99077.19;;;6.75;100.00
48792;BME280;34587;48.816;9.420;2023-12-20T11:52:13;99078.03;;;6.63;100.00
48792;BME280;34587;48.816;9.420;2023-12-20T11:54:38;99071.97;;;6.44;100.00
48792;BME280;34587;48.816;9.420;2023-12-20T11:57:04;99066.81;;;6.38;100.00
48792;BME280;34587;48.816;9.420;2023-12-20T11:59:30;99068.44;;;6.15;100.00
48792;BME280;34587;48.816;9.420;2023-12-20T12:01:56;99066.72;;;6.23;100.00
48792;BME280;34587;48.816;9.420;2023-12-20T12:04:26;99064.13;;;6.12;100.00
48792;BME280;34587;48.816;9.420;2023-12-20T12:06:51;99058.94;;;6.03;100.00
48792;BME280;34587;48.816;9.420;2023-12-20T12:09:16;99058.91;;;5.99;100.00
48792;BME280;34587;48.816;9.420;2023-12-20T12:11:42;99056.34;;;5.96;100.00
48792;BME280;34587;48.816;9.420;2023-12-20T12:14:08;99064.88;;;5.93;100.00
48792;BME280;34587;48.816;9.420;2023-12-20T12:16:33;99057.09;;;5.87;100.00
48792;BME280;34587;48.816;9.420;2023-12-20T12:18:59;99056.19;;;5.77;100.00
48792;BME280;34587;48.816;9.420;2023-12-20T12:21:25;99044.25;;;5.88;100.00
48792;BME280;34587;48.816;9.420;2023-12-20T12:23:50;99044.31;;;5.91;100.00
48792;BME280;34587;48.816;9.420;2023-12-20T12:26:17;99047.75;;;5.97;100.00
48792;BME280;34587;48.816;9.420;2023-12-20T12:28:42;99040.06;;;6.03;100.00
48792;BME280;34587;48.816;9.420;2023-12-20T12:31:12;99028.09;;;6.08;100.00
48792;BME280;34587;48.816;9.420;2023-12-20T12:33:38;99025.53;;;6.11;100.00
48792;BME280;34587;48.816;9.420;2023-12-20T12:36:03;99017.81;;;6.17;100.00
48792;BME280;34587;48.816;9.420;2023-12-20T12:38:30;99017.84;;;6.20;100.00
48792;BME280;34587;48.816;9.420;2023-12-20T12:40:56;99026.44;;;6.28;100.00
48792;BME280;34587;48.816;9.420;2023-12-20T12:43:21;99031.63;;;6.34;100.00
48792;BME280;34587;48.816;9.420;2023-12-20T12:45:48;99021.34;;;6.51;100.00
48792;BME280;34587;48.816;9.420;2023-12-20T12:48:14;99023.06;;;6.51;100.00
48792;BME280;34587;48.816;9.420;2023-12-20T12:50:39;99025.66;;;6.61;100.00
48792;BME280;34587;48.816;9.420;2023-12-20T12:53:04;99020.53;;;6.81;100.00
48792;BME280;34587;48.816;9.420;2023-12-20T12:55:30;99008.53;;;7.08;100.00
48792;BME280;34587;48.816;9.420;2023-12-20T12:57:55;99013.69;;;6.83;100.00
48792;BME280;34587;48.816;9.420;2023-12-20T13:00:20;99011.09;;;6.74;100.00
48792;BME280;34587;48.816;9.420;2023-12-20T13:02:47;99014.50;;;6.52;100.00
48792;BME280;34587;48.816;9.420;2023-12-20T13:05:12;99013.59;;;6.37;100.00
48792;BME280;34587;48.816;9.420;2023-12-20T13:07:37;99010.16;;;6.35;100.00
48792;BME280;34587;48.816;9.420;2023-12-20T13:10:04;99017.84;;;6.26;100.00
48792;BME280;34587;48.816;9.420;2023-12-20T13:12:30;99018.69;;;6.22;100.00
48792;BME280;34587;48.816;9.420;2023-12-20T13:14:57;99015.28;;;6.23;100.00
48792;BME280;34587;48.816;9.420;2023-12-20T13:17:22;99018.69;;;6.10;100.00
48792;BME280;34587;48.816;9.420;2023-12-20T13:19:47;99007.53;;;6.09;100.00
48792;BME280;34587;48.816;9.420;2023-12-20T13:22:12;99014.34;;;6.01;100.00
48792;BME280;34587;48.816;9.420;2023-12-20T13:24:38;99020.38;;;6.14;100.00
48792;BME280;34587;48.816;9.420;2023-12-20T13:27:03;99023.81;;;6.13;100.00
48792;BME280;34587;48.816;9.420;2023-12-20T13:29:28;99013.53;;;6.16;100.00
48792;BME280;34587;48.816;9.420;2023-12-20T13:31:54;99022.16;;;6.24;100.00
48792;BME280;34587;48.816;9.420;2023-12-20T13:34:19;99008.50;;;6.50;100.00
48792;BME280;34587;48.816;9.420;2023-12-20T13:36:45;99010.19;;;6.57;100.00
48792;BME280;34587;48.816;9.420;2023-12-20T13:39:12;99002.44;;;6.31;100.00
48792;BME280;34587;48.816;9.420;2023-12-20T13:41:37;99013.59;;;6.31;100.00
48792;BME280;34587;48.816;9.420;2023-12-20T13:44:03;99013.59;;;6.31;100.00
48792;BME280;34587;48.816;9.420;2023-12-20T13:46:28;99007.53;;;6.17;100.00
48792;BME280;34587;48.816;9.420;2023-12-20T13:48:54;99015.22;;;6.06;100.00
48792;BME280;34587;48.816;9.420;2023-12-20T13:51:19;99021.22;;;6.07;100.00
48792;BME280;34587;48.816;9.420;2023-12-20T13:53:46;99020.34;;;6.02;100.00
48792;BME280;34587;48.816;9.420;2023-12-20T13:56:11;99018.59;;;5.98;100.00
48792;BME280;34587;48.816;9.420;2023-12-20T13:58:36;99026.31;;;5.99;100.00
48792;BME280;34587;48.816;9.420;2023-12-20T14:01:02;99033.09;;;5.86;100.00
48792;BME280;34587;48.816;9.420;2023-12-20T14:03:27;99024.59;;;5.93;100.00
48792;BME280;34587;48.816;9.420;2023-12-20T14:05:52;99022.00;;;5.90;100.00
48792;BME280;34587;48.816;9.420;2023-12-20T14:08:17;99022.88;;;5.92;100.00
48792;BME280;34587;48.816;9.420;2023-12-20T14:10:43;99018.53;;;5.85;100.00
48792;BME280;34587;48.816;9.420;2023-12-20T14:13:08;99021.09;;;5.84;100.00
48792;BME280;34587;48.816;9.420;2023-12-20T14:15:33;99022.78;;;5.76;100.00
48792;BME280;34587;48.816;9.420;2023-12-20T14:18:04;99023.66;;;5.82;100.00
48792;BME280;34587;48.816;9.420;2023-12-20T14:20:31;99016.69;;;5.63;100.00
48792;BME280;34587;48.816;9.420;2023-12-20T14:22:57;99002.97;;;5.58;100.00
48792;BME280;34587;48.816;9.420;2023-12-20T14:25:22;98998.63;;;5.49;100.00
48792;BME280;34587;48.816;9.420;2023-12-20T14:27:48;98998.69;;;5.57;100.00
48792;BME280;34587;48.816;9.420;2023-12-20T14:30:13;98987.50;;;5.55;100.00
48792;BME280;34587;48.816;9.420;2023-12-20T14:32:39;98986.59;;;5.45;100.00
48792;BME280;34587;48.816;9.420;2023-12-20T14:35:06;98979.75;;;5.46;100.00
48792;BME280;34587;48.816;9.420;2023-12-20T14:37:31;98987.44;;;5.38;100.00
48792;BME280;34587;48.816;9.420;2023-12-20T14:39:57;98978.88;;;5.40;100.00
48792;BME280;34587;48.816;9.420;2023-12-20T14:42:22;98977.97;;;5.32;100.00
48792;BME280;34587;48.816;9.420;2023-12-20T14:44:47;98976.28;;;5.34;100.00
48792;BME280;34587;48.816;9.420;2023-12-20T14:47:13;98980.44;;;5.17;100.00
48792;BME280;34587;48.816;9.420;2023-12-20T14:49:40;98982.16;;;5.21;100.00
48792;BME280;34587;48.816;9.420;2023-12-20T14:52:05;98984.72;;;5.15;100.00
48792;BME280;34587;48.816;9.420;2023-12-20T14:54:30;98990.63;;;5.05;100.00
48792;BME280;34587;48.816;9.420;2023-12-20T14:56:57;99002.66;;;5.09;100.00
48792;BME280;34587;48.816;9.420;2023-12-20T14:59:23;98994.06;;;5.04;100.00
48792;BME280;34587;48.816;9.420;2023-12-20T15:01:48;98987.16;;;5.03;100.00
48792;BME280;34587;48.816;9.420;2023-12-20T15:04:13;98994.78;;;4.90;100.00
48792;BME280;34587;48.816;9.420;2023-12-20T15:06:39;99002.53;;;4.97;100.00
48792;BME280;34587;48.816;9.420;2023-12-20T15:09:04;99003.38;;;4.94;100.00
48792;BME280;34587;48.816;9.420;2023-12-20T15:11:33;99012.81;;;4.94;100.00
48792;BME280;34587;48.816;9.420;2023-12-20T15:13:59;99012.72;;;4.86;100.00
48792;BME280;34587;48.816;9.420;2023-12-20T15:16:26;99010.94;;;4.74;100.00
48792;BME280;34587;48.816;9.420;2023-12-20T15:18:52;99004.91;;;4.71;100.00
48792;BME280;34587;48.816;9.420;2023-12-20T15:21:18;99015.97;;;4.68;100.00
48792;BME280;34587;48.816;9.420;2023-12-20T15:23:44;99018.59;;;4.71;100.00
48792;BME280;34587;48.816;9.420;2023-12-20T15:26:18;99021.06;;;4.62;100.00
48792;BME280;34587;48.816;9.420;2023-12-20T15:28:44;99027.06;;;4.64;100.00
48792;BME280;34587;48.816;9.420;2023-12-20T15:31:09;99015.13;;;4.64;100.00
48792;BME280;34587;48.816;9.420;2023-12-20T15:33:34;99015.97;;;4.65;100.00
48792;BME280;34587;48.816;9.420;2023-12-20T15:35:59;99016.81;;;4.67;100.00
48792;BME280;34587;48.816;9.420;2023-12-20T15:38:25;99016.78;;;4.59;100.00
48792;BME280;34587;48.816;9.420;2023-12-20T15:40:50;99005.63;;;4.59;100.00
48792;BME280;34587;48.816;9.420;2023-12-20T15:43:15;99015.88;;;4.59;100.00
48792;BME280;34587;48.816;9.420;2023-12-20T15:45:41;99014.97;;;4.52;100.00
48792;BME280;34587;48.816;9.420;2023-12-20T15:48:06;99019.31;;;4.58;100.00
48792;BME280;34587;48.816;9.420;2023-12-20T15:50:32;99017.50;;;4.48;100.00
48792;BME280;34587;48.816;9.420;2023-12-20T15:52:57;99018.34;;;4.47;100.00
48792;BME280;34587;48.816;9.420;2023-12-20T15:55:22;99021.00;;;4.56;100.00
48792;BME280;34587;48.816;9.420;2023-12-20T15:57:48;99020.97;;;4.53;100.00
48792;BME280;34587;48.816;9.420;2023-12-20T16:00:13;99023.56;;;4.56;100.00
48792;BME280;34587;48.816;9.420;2023-12-20T16:02:39;99015.88;;;4.56;100.00
48792;BME280;34587;48.816;9.420;2023-12-20T16:05:04;99009.09;;;4.61;100.00
48792;BME280;34587;48.816;9.420;2023-12-20T16:07:30;99020.09;;;4.52;100.00
48792;BME280;34587;48.816;9.420;2023-12-20T16:09:55;99013.41;;;4.67;100.00
48792;BME280;34587;48.816;9.420;2023-12-20T16:12:21;99015.97;;;4.68;100.00
48792;BME280;34587;48.816;9.420;2023-12-20T16:14:46;99014.22;;;4.62;100.00
48792;BME280;34587;48.816;9.420;2023-12-20T16:17:12;99021.03;;;4.59;100.00
48792;BME280;34587;48.816;9.420;2023-12-20T16:19:37;99019.25;;;4.53;100.00
48792;BME280;34587;48.816;9.420;2023-12-20T16:22:02;99018.44;;;4.56;100.00
48792;BME280;34587;48.816;9.420;2023-12-20T16:24:28;99008.19;;;4.56;100.00
48792;BME280;34587;48.816;9.420;2023-12-20T16:26:53;99015.94;;;4.62;100.00
48792;BME280;34587;48.816;9.420;2023-12-20T16:29:18;99013.31;;;4.56;100.00
48792;BME280;34587;48.816;9.420;2023-12-20T16:31:44;99003.13;;;4.67;100.00
48792;BME280;34587;48.816;9.420;2023-12-20T16:34:09;99014.31;;;4.70;100.00
48792;BME280;34587;48.816;9.420;2023-12-20T16:36:49;99004.03;;;4.72;100.00
48792;BME280;34587;48.816;9.420;2023-12-20T16:39:15;99001.50;;;4.75;100.00
48792;BME280;34587;48.816;9.420;2023-12-20T16:41:40;98989.47;;;4.68;100.00
48792;BME280;34587;48.816;9.420;2023-12-20T16:44:05;98996.31;;;4.69;100.00
48792;BME280;34587;48.816;9.420;2023-12-20T16:46:30;98997.19;;;4.69;100.00
48792;BME280;34587;48.816;9.420;2023-12-20T16:48:56;98986.16;;;4.81;100.00
48792;BME280;34587;48.816;9.420;2023-12-20T16:51:21;98989.47;;;4.68;100.00
48792;BME280;34587;48.816;9.420;2023-12-20T16:53:47;98994.63;;;4.71;100.00
48792;BME280;34587;48.816;9.420;2023-12-20T16:56:13;98992.06;;;4.72;100.00
48792;BME280;34587;48.816;9.420;2023-12-20T16:58:38;98990.41;;;4.77;100.00
48792;BME280;34587;48.816;9.420;2023-12-20T17:01:03;98996.34;;;4.72;100.00
48792;BME280;34587;48.816;9.420;2023-12-20T17:03:30;98998.94;;;4.76;100.00
48792;BME280;34587;48.816;9.420;2023-12-20T17:05:55;98993.78;;;4.70;100.00
48792;BME280;34587;48.816;9.420;2023-12-20T17:08:20;98995.53;;;4.74;100.00
48792;BME280;34587;48.816;9.420;2023-12-20T17:10:46;99000.63;;;4.70;100.00
48792;BME280;34587;48.816;9.420;2023-12-20T17:13:11;98993.78;;;4.70;100.00
48792;BME280;34587;48.816;9.420;2023-12-20T17:15:36;99000.56;;;4.68;100.00
48792;BME280;34587;48.816;9.420;2023-12-20T17:18:03;98992.97;;;4.74;100.00